Etusivu
METAR-TAF:

METAR-TAF

Lentoasemat :

Taiyuan, Kiina

Leveyspiiri: 37-47N, Pituuspiiri: 112-33E, korkeus merenpinnasta: 779 m

Tämänhetkinen sää

Tämä raportti tehtiin 22 minuuttia sitten, kello 17.00 UTC
Tuuli 2 kn eri suunnista
Lämpötila 0°C
Kosteus 59%
Ilmanpaine 1023 hPa
Näkyvyys 10 km tai enemmän
ei pilviä alle 1500 m:ssä eikä cumulonimbus-pilviä

METAR: ZBYN 131700Z VRB01MPS CAVOK M00/M07 Q1023 NOSIG

Aika: 01:22 (17:22 UTC)

Sääennuste

Tämä raportti tehtiin 8 tuntia ja 16 minuuttia sitten, kello 09.06 UTC
Ennuste voimassa 13. päivästä klo 12 UTC - 14. päivään klo 12 UTC
Tuuli 8 kn luoteesta puuskistuen 19 kn:hen
Näkyvyys: 6000 m

TAF: ZBYN 130906Z 1312/1412 31004G10MPS 6000 NSC TX14/1407Z TNM05/22Z

Säähavainnot ja -ennusteet yli 4000 lentoasemalta (METAR- ja TAF-raportit).

Käytössä olevat sääasemat on merkitty karttaan keltaisilla ja punaisilla pisteillä.

Aseta hiiri pisteen päälle nähdäksesi sääaseman nimen.

Klikkaa sitten nähdäksesi säähavainnot ja -ennusteet.

Kartan vaihtaminen: klikkaa mustalla rastilla varustettuja vihreitä pisteitä, niin voit zoomata sisään; viivalla varustettua vihreää pistettä, niin voit zoomata ulos tai vihreitä nuolia, niin pääset viereisille kartoille.


METAR-TAF: